NCAR-RAP Real-Time Weather Data

Output produced by METARs form (21 April 2018  09:46 UTC)
found at http://weather.rap.ucar.edu/surface/
 
Conditions at: KMCF observed 21 April 2018  09:40 UTC
Temperature: 20.0°C (68°F)
Dewpoint: 18.0°C (64°F) [RH = 88%]
Pressure (altimeter): 30.10 inches Hg (1019.4 mb)
[Sea-level pressure: 1019.6 mb]
Winds: from the E (80 degrees) at 13 MPH (11 knots; 5.7 m/s)
Visibility: 10 or more miles (16+ km)
Ceiling: at least 12,000 feet AGL
Clouds: scattered clouds at 600 feet AGL
Present Weather:
SOME DATA ABOVE MAY BE INACCURATE!!!
"$" is an indication the sensor requires maintenance
KMCF 210940Z AUTO 08011KT 10SM SCT006 20/18 A3010 RMK AO2 SLP196 FZRANO $

Conditions at: KMCF observed 21 April 2018  09:35 UTC
Temperature: 20.0°C (68°F)
Dewpoint: 18.0°C (64°F) [RH = 88%]
Pressure (altimeter): 30.10 inches Hg (1019.4 mb)
[Sea-level pressure: 1019.6 mb]
Winds: from the E (80 degrees) at 12 MPH (10 knots; 5.2 m/s)
Visibility: 10 or more miles (16+ km)
Ceiling: 600 feet AGL
Clouds: broken clouds at 600 feet AGL
Present Weather:
SOME DATA ABOVE MAY BE INACCURATE!!!
"$" is an indication the sensor requires maintenance
KMCF 210935Z AUTO 08010KT 10SM BKN006 20/18 A3010 RMK AO2 SLP196 FZRANO $

Conditions at: KMCF observed 21 April 2018  08:56 UTC
Temperature: 19.5°C (67°F)
Dewpoint: 17.4°C (63°F) [RH = 88%]
Pressure (altimeter): 30.09 inches Hg (1019.0 mb)
[Sea-level pressure: 1019.3 mb]
Winds: from the NE (40 degrees) at 10 MPH (9 knots; 4.7 m/s)
Visibility: 10 or more miles (16+ km)
Ceiling: at least 12,000 feet AGL
Clouds: sky clear below 12,000 feet AGL
Present Weather:
SOME DATA ABOVE MAY BE INACCURATE!!!
"$" is an indication the sensor requires maintenance
KMCF 210856Z AUTO 04009KT 10SM CLR 20/17 A3009 RMK AO2 SLP193 T01950174 56012 FZRANO $

Conditions at: KMCF observed 21 April 2018  07:56 UTC
Temperature: 19.2°C (67°F)
Dewpoint: 17.0°C (63°F) [RH = 87%]
Pressure (altimeter): 30.10 inches Hg (1019.4 mb)
[Sea-level pressure: 1019.6 mb]
Winds: from the NE (40 degrees) at 13 MPH (11 knots; 5.7 m/s)
Visibility: 10 or more miles (16+ km)
Ceiling: at least 12,000 feet AGL
Clouds: sky clear below 12,000 feet AGL
Present Weather:
SOME DATA ABOVE MAY BE INACCURATE!!!
"$" is an indication the sensor requires maintenance
KMCF 210756Z AUTO 04011KT 10SM CLR 19/17 A3010 RMK AO2 SLP196 T01920170 FZRANO $

Conditions at: KMCF observed 21 April 2018  06:56 UTC
Temperature: 19.6°C (67°F)
Dewpoint: 17.2°C (63°F) [RH = 86%]
Pressure (altimeter): 30.10 inches Hg (1019.4 mb)
[Sea-level pressure: 1019.6 mb]
Winds: from the NE (40 degrees) at 13 MPH (11 knots; 5.7 m/s)
Visibility: 10 or more miles (16+ km)
Ceiling: at least 12,000 feet AGL
Clouds: sky clear below 12,000 feet AGL
Present Weather:
SOME DATA ABOVE MAY BE INACCURATE!!!
"$" is an indication the sensor requires maintenance
KMCF 210656Z AUTO 04011KT 10SM CLR 20/17 A3010 RMK AO2 SLP196 T01960172 FZRANO $

Conditions at: KMCF observed 21 April 2018  05:56 UTC
Temperature: 19.6°C (67°F)
Dewpoint: 16.8°C (62°F) [RH = 84%]
Pressure (altimeter): 30.13 inches Hg (1020.4 mb)
[Sea-level pressure: 1020.6 mb]
Winds: from the NE (40 degrees) at 15 MPH (13 knots; 6.8 m/s)
Visibility: 10 or more miles (16+ km)
Ceiling: 4200 feet AGL
Clouds: scattered clouds at 1300 feet AGL
overcast cloud deck at 4200 feet AGL
Present Weather:
SOME DATA ABOVE MAY BE INACCURATE!!!
"$" is an indication the sensor requires maintenance
KMCF 210556Z AUTO 04013KT 10SM SCT013 OVC042 20/17 A3013 RMK AO2 SLP206 T01960168 10237 20196 58002 FZRANO $

Conditions at: KMCF observed 21 April 2018  05:01 UTC
Temperature: 20.0°C (68°F)
Dewpoint: 17.0°C (63°F) [RH = 83%]
Pressure (altimeter): 30.14 inches Hg (1020.7 mb)
[Sea-level pressure: 1020.9 mb]
Winds: from the NE (50 degrees) at 18 MPH (16 knots; 8.3 m/s)
Visibility: 10 or more miles (16+ km)
Ceiling: 4700 feet AGL
Clouds: scattered clouds at 1400 feet AGL
broken clouds at 4700 feet AGL
Present Weather:
SOME DATA ABOVE MAY BE INACCURATE!!!
"$" is an indication the sensor requires maintenance
KMCF 210501Z AUTO 05016KT 10SM SCT014 BKN047 20/17 A3014 RMK AO2 SLP209 FZRANO $

Conditions at: KMCF observed 21 April 2018  04:56 UTC
Temperature: 20.1°C (68°F)
Dewpoint: 16.7°C (62°F) [RH = 81%]
Pressure (altimeter): 30.14 inches Hg (1020.7 mb)
[Sea-level pressure: 1020.9 mb]
Winds: from the NE (40 degrees) at 16 MPH (14 knots; 7.3 m/s)
gusting to 21 MPH (18 knots; 9.4 m/s)
Visibility: 10 or more miles (16+ km)
Ceiling: 1400 feet AGL
Clouds: broken clouds at 1400 feet AGL
broken clouds at 4700 feet AGL
Present Weather:
SOME DATA ABOVE MAY BE INACCURATE!!!
"$" is an indication the sensor requires maintenance
KMCF 210456Z AUTO 04014G18KT 10SM BKN014 BKN047 20/17 A3014 RMK AO2 CIG 014V047 SLP209 T02010167 402770171 FZRANO $

Conditions at: KMCF observed 21 April 2018  04:51 UTC
Temperature: 20.0°C (68°F)
Dewpoint: 17.0°C (63°F) [RH = 83%]
Pressure (altimeter): 30.14 inches Hg (1020.7 mb)
[Sea-level pressure: 1020.9 mb]
Winds: from the NE (50 degrees) at 16 MPH (14 knots; 7.3 m/s)
gusting to 21 MPH (18 knots; 9.4 m/s)
Visibility: 10 or more miles (16+ km)
Ceiling: 1400 feet AGL
Clouds: broken clouds at 1400 feet AGL
broken clouds at 4700 feet AGL
Present Weather:
SOME DATA ABOVE MAY BE INACCURATE!!!
"$" is an indication the sensor requires maintenance
KMCF 210451Z AUTO 05014G18KT 10SM BKN014 BKN047 20/17 A3014 RMK AO2 CIG 014V047 SLP209 FZRANO $

Conditions at: KMCF observed 21 April 2018  04:41 UTC
Temperature: 20.0°C (68°F)
Dewpoint: 17.0°C (63°F) [RH = 83%]
Pressure (altimeter): 30.14 inches Hg (1020.7 mb)
[Sea-level pressure: 1020.9 mb]
Winds: from the NE (40 degrees) at 10 MPH (9 knots; 4.7 m/s)
Visibility: 10 or more miles (16+ km)
Ceiling: 4500 feet AGL
Clouds: scattered clouds at 1500 feet AGL
broken clouds at 4500 feet AGL
Present Weather:
SOME DATA ABOVE MAY BE INACCURATE!!!
"$" is an indication the sensor requires maintenance
KMCF 210441Z AUTO 04009KT 10SM SCT015 BKN045 20/17 A3014 RMK AO2 SLP209 FZRANO $

Conditions at: KMCF observed 21 April 2018  04:36 UTC
Temperature: 20.0°C (68°F)
Dewpoint: 17.0°C (63°F) [RH = 83%]
Pressure (altimeter): 30.14 inches Hg (1020.7 mb)
[Sea-level pressure: 1020.9 mb]
Winds: from the NE (50 degrees) at 13 MPH (11 knots; 5.7 m/s)
Visibility: 10 or more miles (16+ km)
Ceiling: 1600 feet AGL
Clouds: broken clouds at 1600 feet AGL
broken clouds at 4600 feet AGL
Present Weather:
SOME DATA ABOVE MAY BE INACCURATE!!!
"$" is an indication the sensor requires maintenance
KMCF 210436Z AUTO 05011KT 10SM BKN016 BKN046 20/17 A3014 RMK AO2 CIG 016V046 BKN016 V SCT SLP209 FZRANO $

Conditions at: KMCF observed 21 April 2018  04:16 UTC
Temperature: 21.0°C (70°F)
Dewpoint: 17.0°C (63°F) [RH = 78%]
Pressure (altimeter): 30.14 inches Hg (1020.7 mb)
[Sea-level pressure: 1020.9 mb]
Winds: from the NE (40 degrees) at 12 MPH (10 knots; 5.2 m/s)
Visibility: 10 or more miles (16+ km)
Ceiling: 4100 feet AGL
Clouds: scattered clouds at 1700 feet AGL
broken clouds at 4100 feet AGL
Present Weather:
SOME DATA ABOVE MAY BE INACCURATE!!!
"$" is an indication the sensor requires maintenance
KMCF 210416Z AUTO 04010KT 10SM SCT017 BKN041 21/17 A3014 RMK AO2 SLP209 FZRANO $

Conditions at: KMCF observed 21 April 2018  04:11 UTC
Temperature: 21.0°C (70°F)
Dewpoint: 17.0°C (63°F) [RH = 78%]
Pressure (altimeter): 30.14 inches Hg (1020.7 mb)
[Sea-level pressure: 1020.9 mb]
Winds: from the NE (40 degrees) at 12 MPH (10 knots; 5.2 m/s)
Visibility: 10 or more miles (16+ km)
Ceiling: 1700 feet AGL
Clouds: broken clouds at 1700 feet AGL
overcast cloud deck at 4100 feet AGL
Present Weather:
SOME DATA ABOVE MAY BE INACCURATE!!!
"$" is an indication the sensor requires maintenance
KMCF 210411Z AUTO 04010KT 10SM BKN017 OVC041 21/17 A3014 RMK AO2 CIG 017V041 BKN V SCT SLP209 FZRANO $

Conditions at: KMCF observed 21 April 2018  03:56 UTC
Temperature: 20.6°C (69°F)
Dewpoint: 16.8°C (62°F) [RH = 79%]
Pressure (altimeter): 30.13 inches Hg (1020.4 mb)
[Sea-level pressure: 1020.6 mb]
Winds: from the ENE (60 degrees) at 14 MPH (12 knots; 6.2 m/s)
Visibility: 10 or more miles (16+ km)
Ceiling: 3700 feet AGL
Clouds: scattered clouds at 1700 feet AGL
broken clouds at 3700 feet AGL
broken clouds at 4400 feet AGL
Present Weather:
SOME DATA ABOVE MAY BE INACCURATE!!!
"$" is an indication the sensor requires maintenance
KMCF 210356Z AUTO 06012KT 10SM SCT017 BKN037 BKN044 21/17 A3013 RMK AO2 SLP206 T02060168 FZRANO $

Conditions at: KMCF observed 21 April 2018  03:01 UTC
Temperature: 21.0°C (70°F)
Dewpoint: 17.0°C (63°F) [RH = 78%]
Pressure (altimeter): 30.13 inches Hg (1020.4 mb)
[Sea-level pressure: 1020.6 mb]
Winds: from the NE (50 degrees) at 12 MPH (10 knots; 5.2 m/s)
Visibility: 10 or more miles (16+ km)
Ceiling: 3400 feet AGL
Clouds: scattered clouds at 2000 feet AGL
broken clouds at 3400 feet AGL
broken clouds at 4500 feet AGL
Present Weather:
SOME DATA ABOVE MAY BE INACCURATE!!!
"$" is an indication the sensor requires maintenance
KMCF 210301Z AUTO 05010KT 10SM SCT020 BKN034 BKN045 21/17 A3013 RMK AO2 SLP206 FZRANO $

Conditions at: KMCF observed 21 April 2018  02:56 UTC
Temperature: 21.4°C (71°F)
Dewpoint: 17.2°C (63°F) [RH = 77%]
Pressure (altimeter): 30.14 inches Hg (1020.7 mb)
[Sea-level pressure: 1020.9 mb]
Winds: from the NE (50 degrees) at 14 MPH (12 knots; 6.2 m/s)
Visibility: 10 or more miles (16+ km)
Ceiling: 2100 feet AGL
Clouds: broken clouds at 2100 feet AGL
broken clouds at 3100 feet AGL
broken clouds at 4400 feet AGL
Present Weather:
SOME DATA ABOVE MAY BE INACCURATE!!!
"$" is an indication the sensor requires maintenance
KMCF 210256Z AUTO 05012KT 10SM BKN021 BKN031 BKN044 21/17 A3014 RMK AO2 CIG 021V031 BKN021 V SCT SLP209 T02140172 52015 FZRANO $

Conditions at: KMCF observed 21 April 2018  02:46 UTC
Temperature: 22.0°C (72°F)
Dewpoint: 17.0°C (63°F) [RH = 73%]
Pressure (altimeter): 30.13 inches Hg (1020.4 mb)
[Sea-level pressure: 1020.6 mb]
Winds: from the NNE (30 degrees) at 14 MPH (12 knots; 6.2 m/s)
Visibility: 10 or more miles (16+ km)
Ceiling: 3000 feet AGL
Clouds: scattered clouds at 2200 feet AGL
broken clouds at 3000 feet AGL
broken clouds at 4300 feet AGL
Present Weather:
SOME DATA ABOVE MAY BE INACCURATE!!!
"$" is an indication the sensor requires maintenance
KMCF 210246Z AUTO 03012KT 10SM SCT022 BKN030 BKN043 22/17 A3013 RMK AO2 SLP206 FZRANO $

Conditions at: KMCF observed 21 April 2018  01:56 UTC
Temperature: 22.8°C (73°F)
Dewpoint: 17.5°C (64°F) [RH = 72%]
Pressure (altimeter): 30.12 inches Hg (1020.1 mb)
[Sea-level pressure: 1020.3 mb]
Winds: from the NE (40 degrees) at 12 MPH (10 knots; 5.2 m/s)
gusting to 16 MPH (14 knots; 7.3 m/s)
Visibility: 10 or more miles (16+ km)
Ceiling: 2700 feet AGL
Clouds: broken clouds at 2700 feet AGL
Present Weather:
SOME DATA ABOVE MAY BE INACCURATE!!!
"$" is an indication the sensor requires maintenance
KMCF 210156Z AUTO 04010G14KT 10SM BKN027 23/18 A3012 RMK AO2 SLP203 T02280175 FZRANO $

Conditions at: KMCF observed 21 April 2018  01:46 UTC
Temperature: 23.0°C (73°F)
Dewpoint: 18.0°C (64°F) [RH = 73%]
Pressure (altimeter): 30.12 inches Hg (1020.1 mb)
[Sea-level pressure: 1020.3 mb]
Winds: from the N (350 degrees) at 5 MPH (4 knots; 2.1 m/s)
Visibility: 9 miles (14 km)
Ceiling: 2900 feet AGL
Clouds: broken clouds at 2900 feet AGL
Present Weather:
SOME DATA ABOVE MAY BE INACCURATE!!!
"$" is an indication the sensor requires maintenance
KMCF 210146Z AUTO 35004KT 9SM BKN029 23/18 A3012 RMK AO2 BKN V SCT SLP203 FZRANO $

Conditions at: KMCF observed 21 April 2018  00:56 UTC
Temperature: 22.8°C (73°F)
Dewpoint: 18.1°C (65°F) [RH = 75%]
Pressure (altimeter): 30.11 inches Hg (1019.7 mb)
[Sea-level pressure: 1019.9 mb]
Winds: from the NW (320 degrees) at 5 MPH (4 knots; 2.1 m/s)
Visibility: 10 or more miles (16+ km)
Ceiling: at least 12,000 feet AGL
Clouds: sky clear below 12,000 feet AGL
Present Weather:
SOME DATA ABOVE MAY BE INACCURATE!!!
"$" is an indication the sensor requires maintenance
KMCF 210056Z AUTO 32004KT 10SM CLR 23/18 A3011 RMK AO2 SLP199 T02280181 FZRANO $

Conditions at: KMCF observed 20 April 2018  23:56 UTC
Temperature: 23.7°C (75°F)
Dewpoint: 16.7°C (62°F) [RH = 65%]
Pressure (altimeter): 30.09 inches Hg (1019.0 mb)
[Sea-level pressure: 1019.3 mb]
Winds: from the WNW (300 degrees) at 7 MPH (6 knots; 3.1 m/s)
Visibility: 10 or more miles (16+ km)
Ceiling: at least 12,000 feet AGL
Clouds: sky clear below 12,000 feet AGL
Present Weather:
SOME DATA ABOVE MAY BE INACCURATE!!!
"$" is an indication the sensor requires maintenance
KMCF 202356Z AUTO 30006KT 10SM CLR 24/17 A3009 RMK AO2 SLP193 T02370167 10277 20237 50005 FZRANO $

Conditions at: KMCF observed 20 April 2018  22:56 UTC
Temperature: 25.5°C (78°F)
Dewpoint: 17.1°C (63°F) [RH = 60%]
Pressure (altimeter): 30.08 inches Hg (1018.7 mb)
[Sea-level pressure: 1018.9 mb]
Winds: from the NW (310 degrees) at 9 MPH (8 knots; 4.2 m/s)
Visibility: 10 or more miles (16+ km)
Ceiling: at least 12,000 feet AGL
Clouds: sky clear below 12,000 feet AGL
Present Weather:
SOME DATA ABOVE MAY BE INACCURATE!!!
"$" is an indication the sensor requires maintenance
KMCF 202256Z AUTO 31008KT 10SM CLR 26/17 A3008 RMK AO2 SLP189 T02550171 FZRANO $

Conditions at: KMCF observed 20 April 2018  21:56 UTC
Temperature: 27.2°C (81°F)
Dewpoint: 17.6°C (64°F) [RH = 56%]
Pressure (altimeter): 30.09 inches Hg (1019.0 mb)
[Sea-level pressure: 1019.3 mb]
Winds: from the WNW (290 degrees) at 8 MPH (7 knots; 3.6 m/s)
Visibility: 10 or more miles (16+ km)
Ceiling: at least 12,000 feet AGL
Clouds: sky clear below 12,000 feet AGL
Present Weather:
SOME DATA ABOVE MAY BE INACCURATE!!!
"$" is an indication the sensor requires maintenance
KMCF 202156Z AUTO 29007KT 10SM CLR 27/18 A3009 RMK AO2 SLP193 T02720176 FZRANO $

Conditions at: KMCF observed 20 April 2018  20:56 UTC
Temperature: 27.4°C (81°F)
Dewpoint: 17.2°C (63°F) [RH = 54%]
Pressure (altimeter): 30.08 inches Hg (1018.7 mb)
[Sea-level pressure: 1018.9 mb]
Winds: from the W (270 degrees) at 6 MPH (5 knots; 2.6 m/s)
Visibility: 10 or more miles (16+ km)
Ceiling: at least 12,000 feet AGL
Clouds: sky clear below 12,000 feet AGL
Present Weather:
SOME DATA ABOVE MAY BE INACCURATE!!!
"$" is an indication the sensor requires maintenance
KMCF 202056Z AUTO 27005KT 10SM CLR 27/17 A3008 RMK AO2 SLP189 T02740172 57018 FZRANO $

Conditions at: KMCF observed 20 April 2018  19:56 UTC
Temperature: 27.3°C (81°F)
Dewpoint: 15.0°C (59°F) [RH = 47%]
Pressure (altimeter): 30.10 inches Hg (1019.4 mb)
[Sea-level pressure: 1019.6 mb]
Winds: from the W (260 degrees) at 5 MPH (4 knots; 2.1 m/s)
Visibility: 10 or more miles (16+ km)
Ceiling: at least 12,000 feet AGL
Clouds: few clouds at 21000 feet AGL
Present Weather:
SOME DATA ABOVE MAY BE INACCURATE!!!
"$" is an indication the sensor requires maintenance
KMCF 201956Z AUTO 26004KT 10SM FEW210 27/15 A3010 RMK AO2 SLP196 T02730150 FZRANO $

Conditions at: KMCF observed 20 April 2018  18:56 UTC
Temperature: 26.8°C (80°F)
Dewpoint: 15.2°C (59°F) [RH = 49%]
Pressure (altimeter): 30.12 inches Hg (1020.1 mb)
[Sea-level pressure: 1020.3 mb]
Winds: from the SSW (200 degrees) at 3 MPH (3 knots; 1.6 m/s)
Visibility: 10 or more miles (16+ km)
Ceiling: at least 12,000 feet AGL
Clouds: few clouds at 20000 feet AGL
Present Weather:
SOME DATA ABOVE MAY BE INACCURATE!!!
"$" is an indication the sensor requires maintenance
KMCF 201856Z AUTO 20003KT 10SM FEW200 27/15 A3012 RMK AO2 SLP203 T02680152 FZRANO $

Conditions at: KMCF observed 20 April 2018  17:56 UTC
Temperature: 26.2°C (79°F)
Dewpoint: 14.9°C (59°F) [RH = 50%]
Pressure (altimeter): 30.13 inches Hg (1020.4 mb)
[Sea-level pressure: 1020.6 mb]
Winds: from the SSW (210 degrees) at 6 MPH (5 knots; 2.6 m/s)
Visibility: 10 or more miles (16+ km)
Ceiling: at least 12,000 feet AGL
Clouds: few clouds at 16000 feet AGL
Present Weather:
SOME DATA ABOVE MAY BE INACCURATE!!!
"$" is an indication the sensor requires maintenance
KMCF 201756Z AUTO 21005KT 10SM FEW160 26/15 A3013 RMK AO2 SLP206 T02620149 10262 20203 58002 FZRANO $

Conditions at: KMCF observed 20 April 2018  16:56 UTC
Temperature: 25.1°C (77°F)
Dewpoint: 17.8°C (64°F) [RH = 64%]
Pressure (altimeter): 30.13 inches Hg (1020.4 mb)
[Sea-level pressure: 1020.6 mb]
Winds: from the ESE (110 degrees) at 5 MPH (4 knots; 2.1 m/s)
Visibility: 10 or more miles (16+ km)
Ceiling: 17000 feet AGL
Clouds: few clouds at 3200 feet AGL
scattered clouds at 3900 feet AGL
broken clouds at 17000 feet AGL
broken clouds at 23000 feet AGL
Present Weather:
SOME DATA ABOVE MAY BE INACCURATE!!!
"$" is an indication the sensor requires maintenance
KMCF 201656Z AUTO 11004KT 10SM FEW032 SCT039 BKN170 BKN230 25/18 A3013 RMK AO2 SLP206 T02510178 FZRANO $

Conditions at: KMCF observed 20 April 2018  15:56 UTC
Temperature: 24.7°C (76°F)
Dewpoint: 18.4°C (65°F) [RH = 68%]
Pressure (altimeter): 30.14 inches Hg (1020.7 mb)
[Sea-level pressure: 1020.9 mb]
Winds: from the SSE (150 degrees) at 3 MPH (3 knots; 1.6 m/s)
Visibility: 10 or more miles (16+ km)
Ceiling: 3100 feet AGL
Clouds: broken clouds at 3100 feet AGL
broken clouds at 21000 feet AGL
Present Weather:
SOME DATA ABOVE MAY BE INACCURATE!!!
"$" is an indication the sensor requires maintenance
KMCF 201556Z AUTO 15003KT 10SM BKN031 BKN210 25/18 A3014 RMK AO2 SLP209 T02470184 FZRANO $

Conditions at: KMCF observed 20 April 2018  15:51 UTC
Temperature: 25.0°C (77°F)
Dewpoint: 18.0°C (64°F) [RH = 65%]
Pressure (altimeter): 30.14 inches Hg (1020.7 mb)
[Sea-level pressure: 1020.9 mb]
Winds: from the SSW (200 degrees) at 3 MPH (3 knots; 1.6 m/s)
Visibility: 10 or more miles (16+ km)
Ceiling: 3100 feet AGL
Clouds: broken clouds at 3100 feet AGL
Present Weather:
SOME DATA ABOVE MAY BE INACCURATE!!!
"$" is an indication the sensor requires maintenance
KMCF 201551Z AUTO 20003KT 10SM BKN031 25/18 A3014 RMK AO2 SLP209 FZRANO $

Conditions at: KMCF observed 20 April 2018  15:11 UTC
Temperature: 24.0°C (75°F)
Dewpoint: 18.0°C (64°F) [RH = 69%]
Pressure (altimeter): 30.14 inches Hg (1020.7 mb)
[Sea-level pressure: 1020.9 mb]
Winds: from the N (10 degrees) at 3 MPH (3 knots; 1.6 m/s)
Visibility: 10 or more miles (16+ km)
Ceiling: 2600 feet AGL
Clouds: broken clouds at 2600 feet AGL
Present Weather:
SOME DATA ABOVE MAY BE INACCURATE!!!
"$" is an indication the sensor requires maintenance
KMCF 201511Z AUTO 01003KT 10SM BKN026 24/18 A3014 RMK AO2 BKN V SCT CIG 024 RWY04 SLP209 FZRANO $

Conditions at: KMCF observed 20 April 2018  14:56 UTC
Temperature: 23.5°C (74°F)
Dewpoint: 17.7°C (64°F) [RH = 70%]
Pressure (altimeter): 30.14 inches Hg (1020.7 mb)
[Sea-level pressure: 1020.9 mb]
Winds: calm
Visibility: 10 or more miles (16+ km)
Ceiling: at least 12,000 feet AGL
Clouds: scattered clouds at 2600 feet AGL
Present Weather:
SOME DATA ABOVE MAY BE INACCURATE!!!
"$" is an indication the sensor requires maintenance
KMCF 201456Z AUTO 00000KT 10SM SCT026 24/18 A3014 RMK AO2 SLP209 T02350177 52007 FZRANO $

Conditions at: KMCF observed 20 April 2018  14:21 UTC
Temperature: 24.0°C (75°F)
Dewpoint: 18.0°C (64°F) [RH = 69%]
Pressure (altimeter): 30.13 inches Hg (1020.4 mb)
[Sea-level pressure: 1020.6 mb]
Winds: from the NW (310 degrees) at 5 MPH (4 knots; 2.1 m/s)
Visibility: 10 or more miles (16+ km)
Ceiling: 3200 feet AGL
Clouds: scattered clouds at 2500 feet AGL
broken clouds at 3200 feet AGL
Present Weather:
SOME DATA ABOVE MAY BE INACCURATE!!!
"$" is an indication the sensor requires maintenance
KMCF 201421Z AUTO 31004KT 10SM SCT025 BKN032 24/18 A3013 RMK AO2 SLP206 FZRANO $

Conditions at: KMCF observed 20 April 2018  13:56 UTC
Temperature: 22.6°C (73°F)
Dewpoint: 18.5°C (65°F) [RH = 78%]
Pressure (altimeter): 30.13 inches Hg (1020.4 mb)
[Sea-level pressure: 1020.6 mb]
Winds: from the W (280 degrees) at 6 MPH (5 knots; 2.6 m/s)
Visibility: 10 or more miles (16+ km)
Ceiling: 2000 feet AGL
Clouds: broken clouds at 2000 feet AGL
overcast cloud deck at 3100 feet AGL
Present Weather:
SOME DATA ABOVE MAY BE INACCURATE!!!
"$" is an indication the sensor requires maintenance
KMCF 201356Z AUTO 28005KT 10SM BKN020 OVC031 23/19 A3013 RMK AO2 SLP206 T02260185 FZRANO $

Conditions at: KMCF observed 20 April 2018  13:36 UTC
Temperature: 22.0°C (72°F)
Dewpoint: 19.0°C (66°F) [RH = 83%]
Pressure (altimeter): 30.13 inches Hg (1020.4 mb)
[Sea-level pressure: 1020.6 mb]
Winds: from the WNW (290 degrees) at 3 MPH (3 knots; 1.6 m/s)
Visibility: 10 or more miles (16+ km)
Ceiling: 2900 feet AGL
Clouds: scattered clouds at 2200 feet AGL
broken clouds at 2900 feet AGL
broken clouds at 4400 feet AGL
Present Weather:
SOME DATA ABOVE MAY BE INACCURATE!!!
"$" is an indication the sensor requires maintenance
KMCF 201336Z AUTO 29003KT 10SM SCT022 BKN029 BKN044 22/19 A3013 RMK AO2 CIG 029V044 CIG 024 RWY04 SLP206 FZRANO $

Conditions at: KMCF observed 20 April 2018  13:26 UTC
Temperature: 21.0°C (70°F)
Dewpoint: 19.0°C (66°F) [RH = 88%]
Pressure (altimeter): 30.13 inches Hg (1020.4 mb)
[Sea-level pressure: 1020.6 mb]
Winds: from the NNW (340 degrees) at 6 MPH (5 knots; 2.6 m/s)
Visibility: 10 or more miles (16+ km)
Ceiling: 3400 feet AGL
Clouds: few clouds at 2000 feet AGL
scattered clouds at 2600 feet AGL
broken clouds at 3400 feet AGL
broken clouds at 4300 feet AGL
Present Weather:
SOME DATA ABOVE MAY BE INACCURATE!!!
"$" is an indication the sensor requires maintenance
KMCF 201326Z AUTO 34005KT 10SM FEW020 SCT026 BKN034 BKN043 21/19 A3013 RMK AO2 SLP206 FZRANO $

Conditions at: KMCF observed 20 April 2018  13:11 UTC
Temperature: 21.0°C (70°F)
Dewpoint: 19.0°C (66°F) [RH = 88%]
Pressure (altimeter): 30.13 inches Hg (1020.4 mb)
[Sea-level pressure: 1020.6 mb]
Winds: from the N (360 degrees) at 7 MPH (6 knots; 3.1 m/s)
Visibility: 10 or more miles (16+ km)
Ceiling: 2100 feet AGL
Clouds: scattered clouds at 1400 feet AGL
broken clouds at 2100 feet AGL
overcast cloud deck at 3500 feet AGL
Present Weather:
SOME DATA ABOVE MAY BE INACCURATE!!!
"$" is an indication the sensor requires maintenance
KMCF 201311Z AUTO 36006KT 10SM SCT014 BKN021 OVC035 21/19 A3013 RMK AO2 CIG 014V021 SLP206 FZRANO $

Conditions at: KMCF observed 20 April 2018  12:56 UTC
Temperature: 21.1°C (70°F)
Dewpoint: 18.5°C (65°F) [RH = 85%]
Pressure (altimeter): 30.13 inches Hg (1020.4 mb)
[Sea-level pressure: 1020.6 mb]
Winds: from the N (360 degrees) at 7 MPH (6 knots; 3.1 m/s)
Visibility: 10 or more miles (16+ km)
Ceiling: 1400 feet AGL
Clouds: overcast cloud deck at 1400 feet AGL
Present Weather:
SOME DATA ABOVE MAY BE INACCURATE!!!
"$" is an indication the sensor requires maintenance
KMCF 201256Z AUTO 36006KT 10SM OVC014 21/19 A3013 RMK AO2 SLP206 T02110185 FZRANO $

Conditions at: KMCF observed 20 April 2018  12:46 UTC
Temperature: 21.0°C (70°F)
Dewpoint: 19.0°C (66°F) [RH = 88%]
Pressure (altimeter): 30.13 inches Hg (1020.4 mb)
[Sea-level pressure: 1020.6 mb]
Winds: calm
Visibility: 10 or more miles (16+ km)
Ceiling: 1400 feet AGL
Clouds: overcast cloud deck at 1400 feet AGL
Present Weather:
SOME DATA ABOVE MAY BE INACCURATE!!!
"$" is an indication the sensor requires maintenance
KMCF 201246Z AUTO 00000KT 10SM OVC014 21/19 A3013 RMK AO2 SLP206 FZRANO $

Conditions at: KMCF observed 20 April 2018  12:31 UTC
Temperature: 21.0°C (70°F)
Dewpoint: 19.0°C (66°F) [RH = 88%]
Pressure (altimeter): 30.13 inches Hg (1020.4 mb)
[Sea-level pressure: 1020.6 mb]
Winds: from the W (270 degrees) at 3 MPH (3 knots; 1.6 m/s)
Visibility: 10 or more miles (16+ km)
Ceiling: 1500 feet AGL
Clouds: broken clouds at 1500 feet AGL
overcast cloud deck at 2200 feet AGL
Present Weather:
SOME DATA ABOVE MAY BE INACCURATE!!!
"$" is an indication the sensor requires maintenance
KMCF 201231Z AUTO 27003KT 10SM BKN015 OVC022 21/19 A3013 RMK AO2 SLP206 FZRANO $

Conditions at: KMCF observed 20 April 2018  12:21 UTC
Temperature: 21.0°C (70°F)
Dewpoint: 18.0°C (64°F) [RH = 83%]
Pressure (altimeter): 30.13 inches Hg (1020.4 mb)
[Sea-level pressure: 1020.6 mb]
Winds: from the W (270 degrees) at 5 MPH (4 knots; 2.1 m/s)
Visibility: 10 or more miles (16+ km)
Ceiling: 1400 feet AGL
Clouds: broken clouds at 1400 feet AGL
broken clouds at 2200 feet AGL
Present Weather:
SOME DATA ABOVE MAY BE INACCURATE!!!
"$" is an indication the sensor requires maintenance
KMCF 201221Z AUTO 27004KT 10SM BKN014 BKN022 21/18 A3013 RMK AO2 CIG 014V023 BKN014 V SCT SLP206 FZRANO $

Conditions at: KMCF observed 20 April 2018  12:16 UTC
Temperature: 21.0°C (70°F)
Dewpoint: 18.0°C (64°F) [RH = 83%]
Pressure (altimeter): 30.12 inches Hg (1020.1 mb)
[Sea-level pressure: 1020.3 mb]
Winds: calm
Visibility: 10 or more miles (16+ km)
Ceiling: 2200 feet AGL
Clouds: scattered clouds at 1500 feet AGL
broken clouds at 2200 feet AGL
Present Weather:
SOME DATA ABOVE MAY BE INACCURATE!!!
"$" is an indication the sensor requires maintenance
KMCF 201216Z AUTO 00000KT 10SM SCT015 BKN022 21/18 A3012 RMK AO2 CIG 015V023 SLP203 FZRANO $

Conditions at: KMCF observed 20 April 2018  11:56 UTC
Temperature: 20.3°C (69°F)
Dewpoint: 18.2°C (65°F) [RH = 88%]
Pressure (altimeter): 30.12 inches Hg (1020.1 mb)
[Sea-level pressure: 1020.3 mb]
Winds: calm
Visibility: 10 or more miles (16+ km)
Ceiling: 2300 feet AGL
Clouds: scattered clouds at 1600 feet AGL
broken clouds at 2300 feet AGL
Present Weather:
SOME DATA ABOVE MAY BE INACCURATE!!!
"$" is an indication the sensor requires maintenance
KMCF 201156Z AUTO 00000KT 10SM SCT016 BKN023 20/18 A3012 RMK AO2 SLP203 T02030182 10203 20171 53018 FZRANO $

Conditions at: KMCF observed 20 April 2018  11:26 UTC
Temperature: 20.0°C (68°F)
Dewpoint: 18.0°C (64°F) [RH = 88%]
Pressure (altimeter): 30.10 inches Hg (1019.4 mb)
[Sea-level pressure: 1019.6 mb]
Winds: calm
Visibility: 10 or more miles (16+ km)
Ceiling: 2300 feet AGL
Clouds: scattered clouds at 1800 feet AGL
broken clouds at 2300 feet AGL
Present Weather:
SOME DATA ABOVE MAY BE INACCURATE!!!
"$" is an indication the sensor requires maintenance
KMCF 201126Z AUTO 00000KT 10SM SCT018 BKN023 20/18 A3010 RMK AO2 BKN V SCT SLP196 FZRANO $

Conditions at: KMCF observed 20 April 2018  10:56 UTC
Temperature: 19.4°C (67°F)
Dewpoint: 17.5°C (64°F) [RH = 89%]
Pressure (altimeter): 30.08 inches Hg (1018.7 mb)
[Sea-level pressure: 1018.9 mb]
Winds: calm
Visibility: 10 or more miles (16+ km)
Ceiling: at least 12,000 feet AGL
Clouds: few clouds at 1600 feet AGL
scattered clouds at 2200 feet AGL
Present Weather:
SOME DATA ABOVE MAY BE INACCURATE!!!
"$" is an indication the sensor requires maintenance
KMCF 201056Z AUTO 00000KT 10SM FEW016 SCT022 19/18 A3008 RMK AO2 SLP189 T01940175 FZRANO $

Conditions at: KMCF observed 20 April 2018  09:56 UTC
Temperature: 19.0°C (66°F)
Dewpoint: 17.1°C (63°F) [RH = 89%]
Pressure (altimeter): 30.07 inches Hg (1018.4 mb)
[Sea-level pressure: 1018.6 mb]
Winds: from the WNW (300 degrees) at 3 MPH (3 knots; 1.6 m/s)
Visibility: 10 or more miles (16+ km)
Ceiling: at least 12,000 feet AGL
Clouds: sky clear below 12,000 feet AGL
Present Weather:
SOME DATA ABOVE MAY BE INACCURATE!!!
"$" is an indication the sensor requires maintenance
KMCF 200956Z AUTO 30003KT 10SM CLR 19/17 A3007 RMK AO2 SLP186 T01900171 FZRANO $